createdAt,value
2019-03-29T00:02:29.286Z,11.10
2019-03-29T00:04:58.605Z,11.00
2019-03-29T00:07:39.002Z,10.90
2019-03-29T00:09:59.323Z,10.90
2019-03-29T00:12:28.650Z,10.80
2019-03-29T00:14:57.881Z,10.70
2019-03-29T00:17:27.234Z,10.70
2019-03-29T00:19:56.505Z,10.60
2019-03-29T00:22:25.842Z,10.50
2019-03-29T00:24:55.309Z,10.50
2019-03-29T00:27:24.632Z,10.40
2019-03-29T00:29:53.913Z,10.40
2019-03-29T00:32:42.164Z,10.30
2019-03-29T00:35:30.490Z,10.20
2019-03-29T00:38:18.807Z,10.10
2019-03-29T00:44:01.088Z,10.00
2019-03-29T00:46:49.360Z,9.90
2019-03-29T00:49:30.667Z,9.90
2019-03-29T00:52:11.463Z,9.80
2019-03-29T00:54:40.839Z,9.80
2019-03-29T00:57:29.131Z,9.70
2019-03-29T01:00:17.474Z,9.80
2019-03-29T01:03:05.719Z,9.70
2019-03-29T01:05:53.942Z,9.60
2019-03-29T01:08:42.196Z,9.60
2019-03-29T01:11:30.436Z,9.50
2019-03-29T01:14:18.676Z,9.50
2019-03-29T01:17:06.953Z,9.40
2019-03-29T01:19:55.939Z,9.40
2019-03-29T01:22:45.293Z,9.30
2019-03-29T01:28:27.613Z,9.30
2019-03-29T01:31:15.854Z,9.30
2019-03-29T01:34:04.106Z,9.20
2019-03-29T01:36:52.398Z,9.20
2019-03-29T01:39:43.001Z,9.20
2019-03-29T01:42:32.436Z,9.10
2019-03-29T01:45:20.671Z,9.00
2019-03-29T01:48:09.012Z,9.00
2019-03-29T01:50:57.318Z,9.00
2019-03-29T01:53:45.710Z,9.00
2019-03-29T01:56:34.019Z,9.00
2019-03-29T01:59:22.280Z,8.90
2019-03-29T02:02:10.514Z,8.90
2019-03-29T02:04:58.768Z,8.80
2019-03-29T02:07:47.029Z,8.80
2019-03-29T02:10:35.403Z,8.80
2019-03-29T02:13:23.679Z,8.80
2019-03-29T02:16:11.966Z,8.80
2019-03-29T02:19:00.283Z,8.70
2019-03-29T02:21:48.570Z,8.70
2019-03-29T02:24:36.904Z,8.60
2019-03-29T02:27:25.181Z,8.60
2019-03-29T02:30:13.752Z,8.60
2019-03-29T02:33:02.037Z,8.50
2019-03-29T02:35:50.262Z,8.50
2019-03-29T02:38:54.119Z,8.50
2019-03-29T02:41:28.495Z,8.50
2019-03-29T02:44:16.772Z,8.40
2019-03-29T02:47:05.024Z,8.30
2019-03-29T02:49:45.599Z,8.30
2019-03-29T02:52:26.424Z,8.20
2019-03-29T02:55:07.326Z,8.20
2019-03-29T02:57:48.354Z,8.20
2019-03-29T03:00:27.754Z,8.20
2019-03-29T03:03:16.130Z,8.20
2019-03-29T03:06:04.430Z,8.20
2019-03-29T03:08:52.760Z,8.10
2019-03-29T03:11:41.029Z,8.10
2019-03-29T03:14:29.312Z,8.00
2019-03-29T03:17:17.631Z,8.00
2019-03-29T03:20:06.428Z,7.90
2019-03-29T03:22:54.798Z,7.90
2019-03-29T03:25:43.030Z,7.90
2019-03-29T03:28:31.307Z,7.80
2019-03-29T03:31:19.670Z,7.80
2019-03-29T03:34:08.024Z,7.80
2019-03-29T03:36:56.375Z,7.80
2019-03-29T03:39:37.270Z,7.80
2019-03-29T03:42:18.297Z,7.80
2019-03-29T03:47:41.441Z,7.70
2019-03-29T03:50:22.112Z,7.70
2019-03-29T03:53:03.196Z,7.70
2019-03-29T03:55:44.069Z,7.70
2019-03-29T03:58:24.792Z,7.70
2019-03-29T04:01:06.032Z,7.70
2019-03-29T04:03:46.530Z,7.70
2019-03-29T04:06:27.423Z,7.70
2019-03-29T04:09:08.425Z,7.70
2019-03-29T04:11:49.125Z,7.70
2019-03-29T04:14:30.276Z,7.60
2019-03-29T04:16:59.651Z,7.60
2019-03-29T04:19:47.893Z,7.60
2019-03-29T04:22:36.214Z,7.50
2019-03-29T04:25:24.458Z,7.50
2019-03-29T04:28:12.813Z,7.50
2019-03-29T04:31:01.158Z,7.50
2019-03-29T04:33:49.431Z,7.40
2019-03-29T04:36:37.715Z,7.40
2019-03-29T04:39:25.967Z,7.50
2019-03-29T04:42:14.249Z,7.40
2019-03-29T04:45:02.618Z,7.40
2019-03-29T04:47:51.002Z,7.40
2019-03-29T04:50:39.294Z,7.40
2019-03-29T04:53:27.527Z,7.30
2019-03-29T04:56:15.789Z,7.30
2019-03-29T04:59:04.055Z,7.30
2019-03-29T05:01:52.417Z,7.30
2019-03-29T05:04:21.775Z,7.20
2019-03-29T05:07:10.351Z,7.20
2019-03-29T05:09:58.637Z,7.20
2019-03-29T05:15:22.197Z,7.10
2019-03-29T05:18:10.498Z,7.10
2019-03-29T05:20:58.839Z,7.10
2019-03-29T05:23:47.099Z,7.10
2019-03-29T05:26:35.584Z,7.10
2019-03-29T05:29:23.855Z,7.10
2019-03-29T05:32:12.146Z,7.00
2019-03-29T05:35:00.462Z,7.10
2019-03-29T05:37:48.801Z,7.10
2019-03-29T05:40:37.092Z,7.10
2019-03-29T05:43:25.425Z,7.10
2019-03-29T05:46:13.697Z,7.10
2019-03-29T05:49:01.990Z,7.20
2019-03-29T05:51:43.195Z,7.20
2019-03-29T05:54:23.862Z,7.10
2019-03-29T05:57:04.745Z,7.10
2019-03-29T05:59:45.746Z,7.20
2019-03-29T06:02:27.230Z,7.20
2019-03-29T06:05:07.979Z,7.20
2019-03-29T06:07:49.385Z,7.30
2019-03-29T06:10:30.224Z,7.30
2019-03-29T06:13:11.169Z,7.40
2019-03-29T06:15:51.837Z,7.40
2019-03-29T06:18:32.845Z,7.50
2019-03-29T06:21:13.879Z,7.50
2019-03-29T06:23:55.314Z,7.50
2019-03-29T06:26:35.747Z,7.60
2019-03-29T06:29:16.569Z,7.60
2019-03-29T06:31:57.667Z,7.70
2019-03-29T06:34:38.162Z,7.70
2019-03-29T06:37:19.060Z,7.70
2019-03-29T06:39:59.778Z,7.70
2019-03-29T06:42:29.055Z,7.80
2019-03-29T06:45:17.383Z,7.90
2019-03-29T06:48:05.632Z,8.20
2019-03-29T06:50:54.250Z,8.20
2019-03-29T06:53:42.741Z,8.20
2019-03-29T06:56:31.110Z,8.30
2019-03-29T06:59:19.331Z,8.40
2019-03-29T07:02:07.646Z,8.40
2019-03-29T07:04:55.896Z,8.60
2019-03-29T07:07:44.664Z,8.60
2019-03-29T07:10:34.175Z,8.70
2019-03-29T07:13:22.432Z,8.70
2019-03-29T07:16:10.707Z,8.80
2019-03-29T07:18:58.949Z,8.90
2019-03-29T07:21:47.241Z,9.00
2019-03-29T07:24:35.498Z,9.10
2019-03-29T07:27:23.757Z,9.20
2019-03-29T07:30:12.075Z,9.30
2019-03-29T07:33:00.431Z,9.50
2019-03-29T07:35:48.860Z,9.50
2019-03-29T07:41:32.599Z,9.70
2019-03-29T07:44:21.599Z,9.90
2019-03-29T07:47:09.902Z,10.00
2019-03-29T07:49:58.159Z,10.10
2019-03-29T07:52:39.431Z,10.20
2019-03-29T07:55:19.826Z,10.20
2019-03-29T07:58:00.456Z,10.30
2019-03-29T08:00:41.675Z,10.50
2019-03-29T08:03:23.491Z,10.60
2019-03-29T08:06:05.005Z,10.70
2019-03-29T08:08:45.545Z,10.80
2019-03-29T08:11:27.641Z,10.90
2019-03-29T08:14:08.837Z,10.90
2019-03-29T08:16:49.308Z,11.00
2019-03-29T08:19:30.260Z,11.10
2019-03-29T08:22:10.790Z,11.20
2019-03-29T08:24:51.346Z,11.30
2019-03-29T08:27:32.068Z,11.30
2019-03-29T08:30:12.866Z,11.50
2019-03-29T08:32:53.619Z,11.50
2019-03-29T08:35:34.761Z,11.60
2019-03-29T08:38:16.034Z,11.70
2019-03-29T08:41:04.345Z,11.80
2019-03-29T08:43:52.629Z,11.90
2019-03-29T08:46:40.938Z,11.80
2019-03-29T08:49:29.209Z,11.80
2019-03-29T08:52:09.756Z,11.90
2019-03-29T08:54:51.344Z,11.90
2019-03-29T08:57:32.292Z,12.10
2019-03-29T09:00:15.795Z,12.30
2019-03-29T09:02:44.124Z,12.30
2019-03-29T09:05:32.414Z,12.40
2019-03-29T09:08:20.756Z,12.40
2019-03-29T09:11:09.039Z,12.40
2019-03-29T09:13:57.356Z,12.60
2019-03-29T09:16:45.623Z,12.60
2019-03-29T09:19:33.902Z,12.80
2019-03-29T09:22:22.188Z,13.00
2019-03-29T09:25:10.447Z,13.20
2019-03-29T09:27:58.750Z,13.30
2019-03-29T09:30:47.099Z,13.10
2019-03-29T09:33:35.389Z,13.20
2019-03-29T09:36:23.679Z,13.30
2019-03-29T09:39:11.936Z,13.20
2019-03-29T09:42:00.209Z,13.30
2019-03-29T09:44:48.551Z,13.40
2019-03-29T09:47:40.375Z,13.60
2019-03-29T09:50:26.825Z,13.70
2019-03-29T09:53:07.902Z,13.60
2019-03-29T09:55:49.483Z,13.70
2019-03-29T09:58:30.574Z,13.90
2019-03-29T10:01:11.310Z,13.90
2019-03-29T10:03:52.275Z,13.90
2019-03-29T10:06:32.773Z,14.00
2019-03-29T10:09:13.582Z,14.00
2019-03-29T10:11:54.387Z,14.00
2019-03-29T10:14:35.066Z,14.20
2019-03-29T10:17:15.487Z,14.30
2019-03-29T10:19:56.054Z,14.30
2019-03-29T10:25:35.893Z,14.00
2019-03-29T10:28:16.553Z,14.00
2019-03-29T10:30:57.423Z,14.00
2019-03-29T10:33:37.854Z,14.00
2019-03-29T10:36:18.564Z,14.20
2019-03-29T10:38:59.914Z,14.20
2019-03-29T10:41:40.459Z,14.30
2019-03-29T10:44:20.995Z,14.40
2019-03-29T10:47:01.681Z,14.30
2019-03-29T10:49:42.373Z,14.40
2019-03-29T10:52:23.238Z,14.50
2019-03-29T10:55:04.261Z,14.60
2019-03-29T11:00:28.335Z,14.70
2019-03-29T11:03:09.548Z,14.60
2019-03-29T11:05:50.800Z,14.60
2019-03-29T11:08:31.587Z,14.80
2019-03-29T11:11:12.933Z,14.80
2019-03-29T11:13:56.548Z,14.80
2019-03-29T11:16:36.158Z,14.90
2019-03-29T11:19:16.945Z,15.00
2019-03-29T11:21:58.224Z,15.30
2019-03-29T11:24:27.597Z,15.50
2019-03-29T11:27:15.878Z,15.60
2019-03-29T11:30:04.615Z,15.90
2019-03-29T11:32:52.923Z,15.80
2019-03-29T11:35:41.230Z,15.60
2019-03-29T11:38:29.553Z,15.60
2019-03-29T11:41:17.830Z,15.70
2019-03-29T11:44:06.099Z,15.90
2019-03-29T11:46:54.422Z,16.00
2019-03-29T11:49:42.761Z,16.20
2019-03-29T11:52:33.734Z,16.40
2019-03-29T11:55:13.961Z,16.50
2019-03-29T11:57:55.973Z,16.60
2019-03-29T12:00:36.491Z,16.70
2019-03-29T12:03:17.186Z,16.20
2019-03-29T12:05:57.736Z,16.10
2019-03-29T12:08:38.416Z,16.00
2019-03-29T12:11:18.945Z,16.10
2019-03-29T12:13:59.790Z,16.30
2019-03-29T12:16:40.815Z,16.30
2019-03-29T12:19:21.336Z,16.50
2019-03-29T12:22:02.556Z,16.50
2019-03-29T12:24:43.654Z,16.90
2019-03-29T12:27:24.546Z,16.90
2019-03-29T12:30:05.576Z,16.70
2019-03-29T12:35:35.607Z,16.80
2019-03-29T12:38:04.860Z,16.90
2019-03-29T12:40:34.192Z,16.70
2019-03-29T12:43:03.939Z,16.60
2019-03-29T12:45:33.159Z,17.00
2019-03-29T12:48:02.423Z,17.20
2019-03-29T12:50:31.655Z,17.20
2019-03-29T12:53:00.958Z,17.30
2019-03-29T12:55:30.207Z,17.30
2019-03-29T12:57:59.440Z,17.30
2019-03-29T13:00:28.752Z,17.60
2019-03-29T13:02:57.999Z,17.50
2019-03-29T13:05:27.405Z,17.40
2019-03-29T13:07:56.716Z,17.60
2019-03-29T13:10:26.054Z,17.50
2019-03-29T13:12:55.310Z,17.50
2019-03-29T13:15:24.592Z,17.40
2019-03-29T13:17:53.902Z,17.50
2019-03-29T13:20:23.279Z,17.80
2019-03-29T13:22:52.510Z,17.80
2019-03-29T13:25:21.811Z,17.80
2019-03-29T13:27:51.032Z,17.90
2019-03-29T13:30:20.345Z,18.00
2019-03-29T13:32:49.626Z,18.00
2019-03-29T13:35:18.912Z,17.90
2019-03-29T13:37:48.252Z,18.00
2019-03-29T13:40:20.918Z,17.90
2019-03-29T13:42:48.647Z,18.00
2019-03-29T13:45:17.901Z,17.80
2019-03-29T13:47:47.235Z,17.80
2019-03-29T13:50:16.508Z,17.90
2019-03-29T13:52:45.937Z,17.70
2019-03-29T13:55:15.175Z,17.80
2019-03-29T13:57:44.527Z,17.70
2019-03-29T14:00:13.848Z,17.70
2019-03-29T14:02:43.185Z,17.90
2019-03-29T14:05:12.471Z,18.00
2019-03-29T14:07:41.710Z,17.80
2019-03-29T14:10:11.060Z,17.90
2019-03-29T14:12:40.361Z,17.90
2019-03-29T14:15:11.875Z,18.10
2019-03-29T14:17:41.094Z,17.80
2019-03-29T14:20:11.286Z,18.00
2019-03-29T14:22:40.561Z,18.30
2019-03-29T14:25:10.008Z,18.20
2019-03-29T14:27:39.226Z,18.00
2019-03-29T14:30:09.693Z,18.20
2019-03-29T14:32:38.988Z,18.10
2019-03-29T14:35:08.294Z,18.30
2019-03-29T14:37:37.547Z,18.50
2019-03-29T14:40:07.609Z,18.50
2019-03-29T14:42:37.129Z,18.50
2019-03-29T14:45:07.594Z,18.70
2019-03-29T14:47:43.517Z,18.70
2019-03-29T14:50:08.113Z,18.50
2019-03-29T14:52:37.584Z,18.50
2019-03-29T14:55:06.999Z,18.40
2019-03-29T14:57:36.286Z,18.30
2019-03-29T15:00:06.742Z,18.40
2019-03-29T15:02:36.050Z,18.50
2019-03-29T15:05:06.101Z,18.50
2019-03-29T15:07:35.385Z,18.50
2019-03-29T15:10:04.741Z,18.50
2019-03-29T15:12:34.010Z,18.50
2019-03-29T15:15:06.355Z,18.70
2019-03-29T15:17:34.704Z,18.80
2019-03-29T15:20:04.405Z,19.00
2019-03-29T15:22:33.711Z,18.90
2019-03-29T15:25:03.046Z,18.90
2019-03-29T15:27:32.263Z,19.00
2019-03-29T15:30:01.523Z,19.00
2019-03-29T15:32:30.762Z,19.10
2019-03-29T15:35:00.106Z,18.90
2019-03-29T15:37:29.508Z,19.00
2019-03-29T15:39:58.808Z,18.80
2019-03-29T15:42:28.157Z,18.80
2019-03-29T15:44:57.471Z,18.90
2019-03-29T15:47:26.771Z,18.90
2019-03-29T15:49:56.625Z,19.00
2019-03-29T15:52:25.926Z,19.00
2019-03-29T15:54:55.206Z,19.00
2019-03-29T15:57:24.706Z,18.90
2019-03-29T15:59:54.174Z,18.70
2019-03-29T16:02:23.437Z,18.60
2019-03-29T16:04:52.759Z,18.50
2019-03-29T16:07:22.131Z,18.50
2019-03-29T16:09:51.403Z,18.60
2019-03-29T16:12:20.695Z,18.60
2019-03-29T16:14:50.084Z,18.50
2019-03-29T16:17:19.479Z,18.60
2019-03-29T16:19:48.894Z,18.70
2019-03-29T16:22:18.186Z,18.70
2019-03-29T16:24:47.486Z,18.70
2019-03-29T16:27:16.796Z,18.70
2019-03-29T16:29:46.134Z,18.60
2019-03-29T16:32:15.452Z,18.60
2019-03-29T16:34:44.838Z,18.50
2019-03-29T16:37:14.164Z,18.40
2019-03-29T16:39:43.438Z,18.50
2019-03-29T16:44:33.906Z,18.40
2019-03-29T16:47:03.441Z,18.20
2019-03-29T16:49:32.757Z,18.00
2019-03-29T16:52:01.993Z,17.90
2019-03-29T16:54:31.232Z,17.80
2019-03-29T16:57:00.633Z,17.90
2019-03-29T16:59:29.904Z,17.90
2019-03-29T17:01:59.562Z,17.90
2019-03-29T17:04:28.851Z,18.00
2019-03-29T17:06:58.609Z,18.00
2019-03-29T17:09:27.914Z,17.80
2019-03-29T17:11:57.413Z,17.60
2019-03-29T17:14:26.710Z,17.70
2019-03-29T17:16:56.069Z,17.40
2019-03-29T17:19:25.642Z,17.30
2019-03-29T17:21:54.960Z,17.30
2019-03-29T17:24:24.392Z,17.00
2019-03-29T17:26:54.001Z,16.90
2019-03-29T17:29:23.622Z,16.80
2019-03-29T17:31:53.057Z,16.70
2019-03-29T17:34:22.585Z,16.50
2019-03-29T17:36:51.960Z,16.30
2019-03-29T17:39:22.293Z,16.20
2019-03-29T17:41:51.658Z,16.10
2019-03-29T17:44:21.166Z,15.90
2019-03-29T17:46:50.606Z,15.80
2019-03-29T17:49:20.275Z,15.70
2019-03-29T17:51:49.643Z,15.70
2019-03-29T17:54:18.987Z,15.60
2019-03-29T17:56:48.593Z,15.60
2019-03-29T17:59:18.209Z,15.50
2019-03-29T18:01:47.765Z,15.40
2019-03-29T18:04:17.254Z,15.40
2019-03-29T18:06:47.060Z,15.30
2019-03-29T18:09:16.641Z,15.20
2019-03-29T18:11:46.586Z,15.20
2019-03-29T18:14:15.936Z,15.10
2019-03-29T18:16:45.205Z,15.00
2019-03-29T18:19:14.514Z,15.00
2019-03-29T18:21:43.765Z,14.90
2019-03-29T18:24:13.061Z,14.90
2019-03-29T18:26:42.391Z,14.90
2019-03-29T18:29:11.714Z,14.80
2019-03-29T18:31:41.026Z,14.70
2019-03-29T18:34:10.379Z,14.70
2019-03-29T18:40:30.375Z,14.60
2019-03-29T18:43:18.673Z,14.50
2019-03-29T18:46:06.966Z,14.40
2019-03-29T18:52:02.806Z,14.30
2019-03-29T18:54:51.127Z,14.20
2019-03-29T18:57:32.248Z,14.20
2019-03-29T19:00:12.974Z,14.10
2019-03-29T19:02:53.276Z,14.10
2019-03-29T19:05:34.202Z,14.00
2019-03-29T19:08:15.059Z,14.00
2019-03-29T19:10:56.153Z,13.90
2019-03-29T19:13:36.616Z,13.80
2019-03-29T19:16:17.495Z,13.80
2019-03-29T19:19:09.500Z,13.80
2019-03-29T19:21:40.797Z,13.70
2019-03-29T19:24:21.883Z,13.70
2019-03-29T19:27:02.303Z,13.70
2019-03-29T19:29:43.093Z,13.60
2019-03-29T19:32:24.394Z,13.60
2019-03-29T19:35:04.811Z,13.60
2019-03-29T19:37:46.108Z,13.50
2019-03-29T19:40:26.875Z,13.40
2019-03-29T19:43:07.974Z,13.40
2019-03-29T19:45:48.475Z,13.40
2019-03-29T19:48:29.629Z,13.30
2019-03-29T19:51:10.870Z,13.20
2019-03-29T19:53:51.789Z,13.20
2019-03-29T19:56:32.636Z,13.20
2019-03-29T19:59:14.238Z,13.10
2019-03-29T20:01:54.737Z,13.10
2019-03-29T20:04:35.160Z,13.10
2019-03-29T20:07:16.647Z,13.10
2019-03-29T20:09:57.670Z,13.10
2019-03-29T20:12:38.462Z,13.10
2019-03-29T20:15:19.350Z,13.00
2019-03-29T20:18:00.317Z,13.00
2019-03-29T20:20:41.343Z,12.90
2019-03-29T20:23:22.096Z,12.90
2019-03-29T20:26:02.842Z,12.70
2019-03-29T20:28:43.963Z,12.70
2019-03-29T20:31:24.812Z,12.60
2019-03-29T20:34:05.659Z,12.60
2019-03-29T20:36:46.809Z,12.60
2019-03-29T20:39:27.604Z,12.60
2019-03-29T20:42:08.173Z,12.50
2019-03-29T20:44:48.760Z,12.50
2019-03-29T20:47:41.311Z,12.50
2019-03-29T20:50:12.395Z,12.40
2019-03-29T20:52:52.899Z,12.40
2019-03-29T20:55:33.608Z,12.40
2019-03-29T20:58:14.425Z,12.30
2019-03-29T21:00:55.132Z,12.30
2019-03-29T21:03:36.531Z,12.30
2019-03-29T21:06:17.488Z,12.20
2019-03-29T21:08:58.491Z,12.20
2019-03-29T21:11:39.289Z,12.10
2019-03-29T21:14:20.557Z,12.10
2019-03-29T21:17:01.391Z,12.10
2019-03-29T21:19:42.547Z,12.00
2019-03-29T21:22:23.482Z,12.00
2019-03-29T21:25:04.362Z,12.00
2019-03-29T21:27:45.050Z,11.90
2019-03-29T21:30:26.058Z,11.90
2019-03-29T21:33:06.855Z,11.80
2019-03-29T21:35:47.707Z,11.80
2019-03-29T21:41:11.635Z,11.80
2019-03-29T21:43:52.082Z,11.70
2019-03-29T21:46:32.853Z,11.80
2019-03-29T21:49:13.883Z,11.70
2019-03-29T21:51:54.635Z,11.70
2019-03-29T21:54:35.621Z,11.70
2019-03-29T21:57:16.727Z,11.70
2019-03-29T21:59:57.586Z,11.60
2019-03-29T22:02:38.543Z,11.60
2019-03-29T22:05:19.605Z,11.60
2019-03-29T22:08:00.482Z,11.50
2019-03-29T22:10:41.465Z,11.50
2019-03-29T22:13:22.639Z,11.50
2019-03-29T22:16:03.723Z,11.50
2019-03-29T22:18:44.525Z,11.40
2019-03-29T22:21:25.232Z,11.40
2019-03-29T22:24:05.971Z,11.30
2019-03-29T22:29:32.765Z,11.20
2019-03-29T22:32:13.572Z,11.20
2019-03-29T22:34:54.386Z,11.10
2019-03-29T22:37:35.422Z,11.10
2019-03-29T22:40:16.671Z,11.00
2019-03-29T22:42:57.272Z,11.00
2019-03-29T22:45:38.682Z,10.90
2019-03-29T22:48:20.139Z,10.90
2019-03-29T22:51:00.506Z,10.90
2019-03-29T22:53:41.096Z,10.80
2019-03-29T22:56:21.902Z,10.80
2019-03-29T22:59:02.448Z,10.80
2019-03-29T23:01:43.095Z,10.70
2019-03-29T23:04:24.149Z,10.70
2019-03-29T23:07:04.915Z,10.60
2019-03-29T23:09:46.300Z,10.60
2019-03-29T23:12:27.122Z,10.60
2019-03-29T23:15:08.143Z,10.60
2019-03-29T23:17:49.144Z,10.60
2019-03-29T23:20:30.018Z,10.50
2019-03-29T23:23:10.686Z,10.50
2019-03-29T23:25:51.863Z,10.40
2019-03-29T23:28:32.697Z,10.40
2019-03-29T23:31:13.670Z,10.40
2019-03-29T23:36:37.546Z,10.30
2019-03-29T23:39:18.602Z,10.30
2019-03-29T23:41:59.227Z,10.20
2019-03-29T23:44:40.468Z,10.20
2019-03-29T23:47:20.829Z,10.20
2019-03-29T23:50:01.480Z,10.10
2019-03-29T23:52:41.923Z,10.10
2019-03-29T23:55:22.859Z,10.10
2019-03-29T23:58:03.447Z,10.00
